Time;durP1;ratioP1;P1;durP2;ratioP2;P2;SDS_P1;SDS_P2;PMS_P1;PMS_P2;Temp;Humidity;BMP_temperature;BMP_pressure;BME280_temperature;BME280_humidity;BME280_pressure;Samples;Min_cycle;Max_cycle;Signal;HPM_P1;HPM_P2
2022/03/07 00:00:37;;;;;;;14.07;9.40;;;-1.10;99.90;;;;;;6101178;23;20018;-81
2022/03/07 00:03:03;;;;;;;16.90;10.18;;;-1.10;99.90;;;;;;6101684;23;20024;-81
2022/03/07 00:05:29;;;;;;;16.23;9.02;;;-1.10;99.90;;;;;;6077337;23;20020;-81
2022/03/07 00:07:54;;;;;;;15.55;9.20;;;-1.20;99.90;;;;;;6101848;23;20049;-81
2022/03/07 00:10:20;;;;;;;18.35;9.38;;;-1.20;99.90;;;;;;6150404;23;20013;-81
2022/03/07 00:12:46;;;;;;;16.75;9.73;;;-1.20;99.90;;;;;;6101332;23;20027;-81
2022/03/07 00:15:12;;;;;;;15.63;9.27;;;-1.20;99.90;;;;;;6101390;23;20033;-82
2022/03/07 00:17:37;;;;;;;14.07;8.90;;;-1.20;99.90;;;;;;6101500;23;20430;-81
2022/03/07 00:20:04;;;;;;;13.55;8.88;;;-1.30;99.90;;;;;;6150308;23;20108;-81
2022/03/07 00:22:30;;;;;;;19.35;9.57;;;-1.20;99.90;;;;;;6101073;23;20341;-81
2022/03/07 00:24:55;;;;;;;12.93;9.45;;;-1.30;99.90;;;;;;6150554;23;20096;-81
2022/03/07 00:27:21;;;;;;;16.73;9.05;;;-1.30;99.90;;;;;;6101187;23;20056;-81
2022/03/07 00:29:47;;;;;;;16.30;10.00;;;-1.30;99.90;;;;;;6149934;23;20022;-81
2022/03/07 00:32:13;;;;;;;16.45;10.00;;;-0.70;99.90;;;;;;6125212;23;20021;-82
2022/03/07 00:34:39;;;;;;;14.13;9.18;;;-1.30;99.90;;;;;;6077568;23;20028;-82
2022/03/07 00:37:05;;;;;;;18.25;10.00;;;-1.30;99.90;;;;;;6100790;23;20018;-81
2022/03/07 00:39:31;;;;;;;14.85;8.68;;;-1.30;99.90;;;;;;6101138;23;20077;-81
2022/03/07 00:41:56;;;;;;;15.75;9.63;;;-1.30;99.90;;;;;;6150230;23;20516;-81
2022/03/07 00:44:22;;;;;;;14.57;9.27;;;-1.40;99.90;;;;;;6100683;23;20472;-81
2022/03/07 00:46:48;;;;;;;17.90;10.43;;;-1.40;99.90;;;;;;6149751;23;20057;-81
2022/03/07 00:49:13;;;;;;;19.52;10.40;;;-1.40;99.90;;;;;;6077220;23;20018;-81
2022/03/07 00:51:39;;;;;;;19.70;11.23;;;-1.50;99.90;;;;;;6101348;23;20528;-81
2022/03/07 00:54:05;;;;;;;23.58;12.07;;;-1.50;99.90;;;;;;6125637;23;20048;-81
2022/03/07 00:56:30;;;;;;;21.88;12.52;;;-1.50;99.90;;;;;;6076828;23;20084;-81
2022/03/07 00:58:56;;;;;;;22.73;11.07;;;-1.50;99.90;;;;;;6101065;23;20033;-81
2022/03/07 01:01:22;;;;;;;27.42;11.57;;;-1.50;99.90;;;;;;6076519;23;20021;-81
2022/03/07 01:03:48;;;;;;;19.73;11.13;;;-0.70;99.90;;;;;;6053195;23;20457;-82
2022/03/07 01:06:14;;;;;;;27.08;9.90;;;-1.60;99.90;;;;;;6100868;23;20119;-81
2022/03/07 01:08:39;;;;;;;15.60;9.77;;;-1.60;99.90;;;;;;6101051;23;20013;-81
2022/03/07 01:11:05;;;;;;;17.23;11.00;;;-1.60;99.90;;;;;;6149177;23;20061;-81
2022/03/07 01:13:31;;;;;;;18.13;10.80;;;-1.60;99.90;;;;;;6125313;23;20025;-82
2022/03/07 01:15:57;;;;;;;18.17;11.00;;;-1.60;99.90;;;;;;6099629;23;20454;-81
2022/03/07 01:18:23;;;;;;;17.52;10.52;;;-1.50;99.90;;;;;;6098787;23;20060;-81
2022/03/07 01:20:49;;;;;;;18.10;11.43;;;-1.60;99.90;;;;;;6122688;23;20028;-81
2022/03/07 01:23:14;;;;;;;14.32;9.82;;;-1.60;99.90;;;;;;6124883;23;20013;-81
2022/03/07 01:25:40;;;;;;;14.18;9.32;;;-1.40;99.90;;;;;;6149877;23;20145;-81
2022/03/07 01:28:06;;;;;;;15.70;9.15;;;-1.60;99.90;;;;;;6100959;23;20061;-81
2022/03/07 01:30:32;;;;;;;15.02;9.77;;;-1.60;99.90;;;;;;6124744;23;20025;-81
2022/03/07 01:32:58;;;;;;;19.20;9.93;;;-1.60;99.90;;;;;;6100500;23;20025;-81
2022/03/07 01:35:23;;;;;;;20.88;11.50;;;-0.50;99.90;;;;;;6149678;23;20453;-81
2022/03/07 01:37:49;;;;;;;23.48;13.48;;;-1.70;99.90;;;;;;6078013;23;20060;-81
2022/03/07 01:40:15;;;;;;;20.80;12.50;;;-1.20;99.90;;;;;;6078696;23;20017;-81
2022/03/07 01:42:41;;;;;;;19.30;12.27;;;-1.70;99.90;;;;;;6102534;23;20033;-81
2022/03/07 01:45:15;;;;;;;25.25;13.25;;;-1.60;99.90;;;;;;6076894;23;20017;-81
2022/03/07 01:47:42;;;;;;;20.30;13.40;;;-1.70;99.90;;;;;;6100738;23;20018;-81
2022/03/07 01:50:12;;;;;;;23.17;12.75;;;-1.70;99.90;;;;;;6100833;23;20041;-81
2022/03/07 01:52:40;;;;;;;23.98;11.52;;;-1.70;99.90;;;;;;6100768;23;20021;-81
2022/03/07 01:55:08;;;;;;;17.23;9.95;;;-1.70;99.90;;;;;;6124684;23;20048;-81
2022/03/07 01:57:39;;;;;;;24.02;12.13;;;-1.70;99.90;;;;;;6100783;23;20049;-81
2022/03/07 02:00:11;;;;;;;15.40;9.80;;;-1.80;99.90;;;;;;6100881;23;20025;-81
2022/03/07 02:02:37;;;;;;;20.00;10.00;;;-1.80;99.90;;;;;;6149781;23;20464;-81
2022/03/07 02:05:04;;;;;;;17.77;9.95;;;-1.90;99.90;;;;;;6100721;23;20017;-81
2022/03/07 02:07:30;;;;;;;19.10;9.43;;;-1.80;99.90;;;;;;6149299;23;20049;-81
2022/03/07 02:09:56;;;;;;;17.13;10.82;;;-1.90;99.90;;;;;;6101044;23;20017;-81
2022/03/07 02:12:22;;;;;;;22.98;13.48;;;-1.90;99.90;;;;;;6124708;23;20017;-81
2022/03/07 02:14:47;;;;;;;24.67;14.18;;;-1.90;99.90;;;;;;6100879;23;20043;-81
2022/03/07 02:17:13;;;;;;;22.05;11.27;;;-1.90;99.90;;;;;;6076767;23;20021;-81
2022/03/07 02:19:39;;;;;;;18.92;11.05;;;-1.90;99.90;;;;;;6076295;23;20023;-81
2022/03/07 02:22:05;;;;;;;19.80;11.35;;;-1.90;99.90;;;;;;6076445;23;20022;-81
2022/03/07 02:24:32;;;;;;;17.70;11.40;;;-1.90;99.90;;;;;;6100788;23;20018;-81
2022/03/07 02:27:00;;;;;;;16.67;10.38;;;-1.90;99.90;;;;;;6125279;23;20036;-81
2022/03/07 02:29:27;;;;;;;21.90;11.57;;;-1.90;99.90;;;;;;6126413;23;20014;-81
2022/03/07 02:31:52;;;;;;;18.38;11.05;;;-1.90;99.90;;;;;;6105781;23;20410;-81
2022/03/07 02:34:18;;;;;;;19.73;11.48;;;-2.00;99.90;;;;;;6106088;23;20210;-81
2022/03/07 02:36:44;;;;;;;20.17;11.93;;;-2.00;99.90;;;;;;6082452;23;20508;-81
2022/03/07 02:39:11;;;;;;;16.95;10.90;;;-2.00;99.90;;;;;;6079194;23;20032;-81
2022/03/07 02:41:37;;;;;;;14.32;10.15;;;-2.00;99.90;;;;;;6076387;23;20096;-81
2022/03/07 02:44:03;;;;;;;16.85;10.23;;;-2.00;99.90;;;;;;6078527;23;20500;-81
2022/03/07 02:46:29;;;;;;;15.63;10.43;;;-2.00;99.90;;;;;;6101506;23;20021;-81
2022/03/07 02:48:55;;;;;;;15.88;10.30;;;-2.10;99.90;;;;;;6102127;23;20022;-81
2022/03/07 02:51:21;;;;;;;20.35;11.50;;;-1.60;99.90;;;;;;6076527;23;20445;-81
2022/03/07 02:53:47;;;;;;;28.08;13.52;;;-2.10;99.90;;;;;;6124727;23;20445;-81
2022/03/07 02:56:12;;;;;;;30.77;15.98;;;-2.10;99.90;;;;;;6100628;23;20425;-81
2022/03/07 02:58:38;;;;;;;30.13;15.32;;;-2.10;99.90;;;;;;6076622;23;20072;-81
2022/03/07 03:01:04;;;;;;;23.77;12.70;;;-2.20;99.90;;;;;;6100147;23;20475;-81
2022/03/07 03:03:30;;;;;;;21.27;11.20;;;-2.10;99.90;;;;;;6076546;23;20080;-81
2022/03/07 03:05:55;;;;;;;23.77;10.90;;;-2.20;99.90;;;;;;6099986;23;20460;-81
2022/03/07 03:08:22;;;;;;;20.67;10.35;;;-2.20;99.90;;;;;;6124711;23;20496;-81
2022/03/07 03:10:49;;;;;;;14.60;9.77;;;-2.30;99.90;;;;;;6102032;23;20469;-81
2022/03/07 03:13:17;;;;;;;16.48;10.30;;;-2.30;99.90;;;;;;6102343;23;20457;-81
2022/03/07 03:15:44;;;;;;;17.27;11.15;;;-2.30;99.90;;;;;;6078355;23;20098;-81
2022/03/07 03:18:09;;;;;;;21.15;11.90;;;-2.30;99.90;;;;;;6102338;23;20022;-81
2022/03/07 03:20:35;;;;;;;17.95;10.52;;;-2.30;99.90;;;;;;6102388;23;20335;-81
2022/03/07 03:23:01;;;;;;;23.95;11.90;;;-2.30;99.90;;;;;;6078003;23;20101;-81
2022/03/07 03:25:26;;;;;;;15.80;9.75;;;-2.30;99.90;;;;;;6101961;23;20449;-81
2022/03/07 03:27:52;;;;;;;18.75;10.75;;;-2.30;99.90;;;;;;6078089;23;20017;-81
2022/03/07 03:30:18;;;;;;;18.55;11.70;;;-1.20;99.90;;;;;;6077927;23;20096;-81
2022/03/07 03:32:43;;;;;;;18.88;11.20;;;-2.20;99.90;;;;;;6076254;23;20022;-81
2022/03/07 03:35:09;;;;;;;17.65;11.07;;;-2.20;99.90;;;;;;6085756;23;20022;-81
2022/03/07 03:37:36;;;;;;;18.52;10.90;;;-2.20;99.90;;;;;;6127429;23;20050;-81
2022/03/07 03:40:03;;;;;;;18.58;10.95;;;-2.10;99.90;;;;;;6102420;23;20036;-81
2022/03/07 03:42:29;;;;;;;16.45;10.95;;;-2.10;99.90;;;;;;6101753;23;20065;-81
2022/03/07 03:44:54;;;;;;;21.38;11.65;;;-2.00;99.90;;;;;;6102678;23;20017;-81
2022/03/07 03:47:20;;;;;;;18.80;11.07;;;-2.00;99.90;;;;;;6078519;23;20591;-81
2022/03/07 03:49:46;;;;;;;23.17;12.68;;;-2.00;99.90;;;;;;6126962;23;20021;-81
2022/03/07 03:52:11;;;;;;;26.40;13.00;;;-1.90;99.90;;;;;;6102537;23;20096;-81
2022/03/07 03:54:37;;;;;;;23.20;12.23;;;-1.90;99.90;;;;;;6102464;23;20017;-81
2022/03/07 03:57:03;;;;;;;19.20;12.23;;;-1.90;99.90;;;;;;6102624;23;20539;-81
2022/03/07 03:59:29;;;;;;;21.20;12.23;;;-1.90;99.90;;;;;;6102826;23;20013;-81
2022/03/07 04:01:55;;;;;;;21.40;11.52;;;-1.90;99.90;;;;;;6100870;23;20029;-81
2022/03/07 04:04:20;;;;;;;23.35;12.10;;;-1.80;99.90;;;;;;6102244;23;20022;-81
2022/03/07 04:06:46;;;;;;;20.63;13.20;;;-1.80;99.90;;;;;;6102152;23;20041;-81
2022/03/07 04:09:20;;;;;;;23.40;11.52;;;-1.80;99.90;;;;;;6078053;23;20014;-81
2022/03/07 04:11:47;;;;;;;21.85;12.45;;;-1.80;99.90;;;;;;6126667;23;20021;-81
2022/03/07 04:14:13;;;;;;;19.35;11.65;;;-1.70;99.90;;;;;;6102667;23;20076;-80
2022/03/07 04:16:39;;;;;;;22.42;12.82;;;-1.80;99.90;;;;;;6102284;23;20022;-82
2022/03/07 04:19:06;;;;;;;20.55;11.75;;;-1.90;99.90;;;;;;6102090;23;20033;-81
2022/03/07 04:21:35;;;;;;;16.70;11.27;;;-0.90;99.90;;;;;;6104789;23;20021;-81
2022/03/07 04:24:01;;;;;;;20.02;11.63;;;-1.30;99.90;;;;;;6101733;23;20025;-81
2022/03/07 04:26:27;;;;;;;20.80;12.02;;;-2.00;99.90;;;;;;6054474;23;20013;-81
2022/03/07 04:28:53;;;;;;;22.10;13.38;;;-1.90;99.90;;;;;;6101958;23;20021;-81
2022/03/07 04:31:18;;;;;;;23.83;13.10;;;-1.90;99.90;;;;;;6101561;23;20017;-82
2022/03/07 04:33:44;;;;;;;23.15;12.93;;;-1.90;99.90;;;;;;6078481;23;20527;-81
2022/03/07 04:36:10;;;;;;;20.90;12.65;;;-1.90;99.90;;;;;;6102038;23;20028;-81
2022/03/07 04:38:36;;;;;;;20.55;12.38;;;-1.90;99.90;;;;;;6101920;23;20029;-81
2022/03/07 04:41:02;;;;;;;21.77;13.00;;;-1.90;99.90;;;;;;6078067;23;20416;-82
2022/03/07 04:43:28;;;;;;;23.05;13.20;;;-1.90;99.90;;;;;;6126446;23;20028;-81
2022/03/07 04:45:53;;;;;;;24.63;13.93;;;-1.50;99.90;;;;;;6102096;23;20014;-81
2022/03/07 04:48:20;;;;;;;29.23;13.98;;;-1.90;99.90;;;;;;6077894;23;20092;-81
2022/03/07 04:50:46;;;;;;;25.40;14.15;;;-1.90;99.90;;;;;;6101961;23;20021;-81
2022/03/07 04:53:12;;;;;;;30.85;15.77;;;-1.90;99.90;;;;;;6101978;23;20393;-81
2022/03/07 04:55:38;;;;;;;27.48;14.60;;;-1.90;99.90;;;;;;6102120;23;20017;-81
2022/03/07 04:58:03;;;;;;;26.83;15.13;;;-1.80;99.90;;;;;;6078090;23;20079;-81
2022/03/07 05:00:30;;;;;;;25.88;14.43;;;-1.80;99.90;;;;;;6125547;23;20018;-81
2022/03/07 05:02:56;;;;;;;26.33;14.82;;;-1.80;99.90;;;;;;6077804;23;20018;-81
2022/03/07 05:05:22;;;;;;;29.33;16.02;;;-1.80;99.90;;;;;;6077656;23;20017;-81
2022/03/07 05:07:50;;;;;;;24.77;13.55;;;-1.80;99.90;;;;;;6102009;23;20076;-81
2022/03/07 05:10:19;;;;;;;24.27;14.38;;;-1.80;99.90;;;;;;6078062;23;20020;-81
2022/03/07 05:12:46;;;;;;;24.25;13.65;;;-1.80;99.90;;;;;;6077384;23;20535;-81
2022/03/07 05:15:12;;;;;;;25.23;14.02;;;-1.80;99.90;;;;;;6100787;23;20021;-81
2022/03/07 05:17:53;;;;;;;25.70;14.60;;;-1.70;99.90;;;;;;6077286;23;20021;-81
2022/03/07 05:20:20;;;;;;;24.83;14.35;;;-1.60;99.90;;;;;;6100394;23;20013;-81
2022/03/07 05:22:46;;;;;;;23.48;14.50;;;-1.70;99.90;;;;;;6100873;23;20029;-81
2022/03/07 05:25:13;;;;;;;26.40;13.57;;;-1.60;99.90;;;;;;6100816;23;20013;-81
2022/03/07 05:27:39;;;;;;;23.92;13.73;;;-1.60;99.90;;;;;;6125474;23;20017;-82
2022/03/07 05:30:07;;;;;;;25.30;14.45;;;-1.60;99.90;;;;;;6076755;23;20020;-81
2022/03/07 05:32:33;;;;;;;24.75;14.10;;;-1.60;99.90;;;;;;6100178;23;20053;-81
2022/03/07 05:34:59;;;;;;;29.50;14.65;;;-1.50;99.90;;;;;;6100912;23;20017;-81
2022/03/07 05:37:25;;;;;;;28.85;14.43;;;-1.50;99.90;;;;;;6100446;23;20021;-81
2022/03/07 05:39:51;;;;;;;30.00;15.05;;;-1.50;99.90;;;;;;6123363;23;20049;-81
2022/03/07 05:42:17;;;;;;;26.85;14.63;;;-1.40;99.90;;;;;;6100004;23;20044;-81
2022/03/07 05:44:43;;;;;;;24.95;14.80;;;-1.40;99.90;;;;;;6073267;23;20445;-82
2022/03/07 05:47:09;;;;;;;23.67;13.60;;;-1.40;99.90;;;;;;6100556;23;20028;-81
2022/03/07 05:49:34;;;;;;;24.83;13.32;;;-1.40;99.90;;;;;;6124696;23;20013;-81
2022/03/07 05:52:00;;;;;;;24.00;14.32;;;-1.40;99.90;;;;;;6076626;23;20068;-81
2022/03/07 05:54:26;;;;;;;23.80;14.13;;;-1.20;99.90;;;;;;6076355;23;20068;-81
2022/03/07 05:56:52;;;;;;;26.45;14.20;;;-1.40;99.90;;;;;;6100702;23;20076;-81
2022/03/07 05:59:17;;;;;;;28.08;14.27;;;-1.40;99.90;;;;;;6100550;23;20028;-81
2022/03/07 06:01:43;;;;;;;21.73;13.70;;;-1.40;99.90;;;;;;6052134;23;20639;-81
2022/03/07 06:04:09;;;;;;;23.95;13.80;;;-1.50;99.90;;;;;;6076430;23;20507;-81
2022/03/07 06:06:35;;;;;;;21.58;13.27;;;-1.50;99.90;;;;;;6100481;23;20048;-81
2022/03/07 06:09:01;;;;;;;23.52;13.80;;;-1.60;99.90;;;;;;6100376;23;20014;-81
2022/03/07 06:11:26;;;;;;;19.05;12.27;;;-1.60;99.90;;;;;;6100052;23;20495;-81
2022/03/07 06:13:52;;;;;;;24.88;14.20;;;-1.60;99.90;;;;;;6100630;23;20022;-81
2022/03/07 06:16:18;;;;;;;23.23;14.55;;;-1.60;99.90;;;;;;6101063;23;20027;-82
2022/03/07 06:18:44;;;;;;;24.23;13.98;;;-1.60;99.90;;;;;;6077060;23;20024;-81
2022/03/07 06:21:09;;;;;;;25.90;14.05;;;-1.60;99.90;;;;;;6052967;23;20497;-81
2022/03/07 06:23:36;;;;;;;25.35;14.70;;;-1.60;99.90;;;;;;6101195;23;20514;-81
2022/03/07 06:26:04;;;;;;;23.35;13.68;;;-1.60;99.90;;;;;;6125405;23;20022;-81
2022/03/07 06:28:30;;;;;;;26.35;15.18;;;-1.60;99.90;;;;;;6101157;23;20020;-82
2022/03/07 06:30:56;;;;;;;24.80;13.38;;;-1.50;99.90;;;;;;6124969;23;20018;-81
2022/03/07 06:33:21;;;;;;;21.67;12.90;;;-1.50;99.90;;;;;;6076516;23;20208;-81
2022/03/07 06:35:47;;;;;;;25.23;13.52;;;-1.50;99.90;;;;;;6076087;23;20021;-81
2022/03/07 06:38:13;;;;;;;20.60;12.95;;;-1.50;99.90;;;;;;6124395;23;20472;-82
2022/03/07 06:40:38;;;;;;;25.20;15.48;;;-1.50;99.90;;;;;;6124712;23;20088;-81
2022/03/07 06:43:04;;;;;;;37.85;18.80;;;-1.50;99.90;;;;;;6076476;23;20093;-82
2022/03/07 06:45:30;;;;;;;25.40;15.23;;;-1.50;99.90;;;;;;6077961;23;20096;-81
2022/03/07 06:47:57;;;;;;;22.85;14.13;;;-2.70;99.90;;;;;;6126853;23;20017;-82
2022/03/07 06:50:23;;;;;;;23.60;13.05;;;-1.50;99.90;;;;;;6077949;23;20353;-81
2022/03/07 06:52:48;;;;;;;23.33;13.20;;;-1.50;99.90;;;;;;6102542;23;20025;-81
2022/03/07 06:55:14;;;;;;;18.85;12.00;;;-1.50;99.90;;;;;;6054196;23;20024;-81
2022/03/07 06:57:41;;;;;;;23.17;13.95;;;-1.40;99.90;;;;;;6102297;23;20024;-81
2022/03/07 07:00:11;;;;;;;19.52;13.07;;;-1.50;99.90;;;;;;6102039;23;20017;-81
2022/03/07 07:02:37;;;;;;;22.42;12.35;;;-1.50;99.90;;;;;;6126251;23;20054;-81
2022/03/07 07:05:04;;;;;;;24.00;14.15;;;-1.50;99.90;;;;;;6102177;23;20014;-81
2022/03/07 07:07:31;;;;;;;22.38;14.35;;;-1.50;99.90;;;;;;6101981;23;20024;-81
2022/03/07 07:09:57;;;;;;;22.15;12.38;;;-1.50;99.90;;;;;;6078539;23;20013;-82
2022/03/07 07:12:23;;;;;;;21.27;12.68;;;-1.50;99.90;;;;;;6102168;23;20028;-82
2022/03/07 07:14:49;;;;;;;21.85;13.43;;;-1.50;99.90;;;;;;6102152;23;20021;-81
2022/03/07 07:17:16;;;;;;;20.30;12.60;;;-1.40;99.90;;;;;;6126536;23;20064;-81
2022/03/07 07:19:42;;;;;;;23.33;13.52;;;-1.40;99.90;;;;;;6126493;23;20013;-82
2022/03/07 07:22:08;;;;;;;25.60;14.80;;;-1.30;99.90;;;;;;6101104;23;20053;-82
2022/03/07 07:24:34;;;;;;;21.90;13.30;;;-1.30;99.90;;;;;;6102192;23;20751;-82
2022/03/07 07:27:00;;;;;;;27.10;14.70;;;-1.30;99.90;;;;;;6078526;23;20017;-83
2022/03/07 07:29:26;;;;;;;22.20;13.63;;;-1.20;99.90;;;;;;6128031;23;20017;-82
2022/03/07 07:31:51;;;;;;;23.77;14.38;;;-1.10;99.90;;;;;;6102802;23;20024;-82
2022/03/07 07:34:18;;;;;;;26.27;14.90;;;-1.10;99.90;;;;;;6102746;23;20049;-82
2022/03/07 07:36:44;;;;;;;23.67;14.80;;;-1.00;99.90;;;;;;6079337;23;20021;-81
2022/03/07 07:39:10;;;;;;;25.05;14.75;;;0.10;99.90;;;;;;6103642;23;20021;-83
2022/03/07 07:41:36;;;;;;;26.08;15.07;;;-0.10;99.90;;;;;;6127001;23;20056;-82
2022/03/07 07:44:02;;;;;;;27.33;15.63;;;-0.80;99.90;;;;;;6126917;23;20025;-81
2022/03/07 07:46:28;;;;;;;25.67;14.80;;;-0.70;99.90;;;;;;6126841;23;20017;-82
2022/03/07 07:48:54;;;;;;;27.83;16.50;;;-0.70;99.90;;;;;;6102634;23;20013;-84
2022/03/07 07:51:20;;;;;;;24.20;15.55;;;-0.60;99.90;;;;;;6102081;23;20464;-82
2022/03/07 07:53:46;;;;;;;25.02;14.65;;;0.00;99.90;;;;;;6100875;23;20024;-84
2022/03/07 07:56:11;;;;;;;25.00;14.43;;;0.10;99.90;;;;;;6100609;23;20029;-83
2022/03/07 07:58:37;;;;;;;20.08;12.52;;;0.70;99.90;;;;;;6100891;23;20401;-81
2022/03/07 08:01:04;;;;;;;28.52;14.73;;;1.40;99.90;;;;;;6102122;23;20024;-83
2022/03/07 08:03:30;;;;;;;25.13;14.07;;;2.10;99.90;;;;;;6078349;23;20017;-82
2022/03/07 08:05:56;;;;;;;19.58;12.88;;;2.70;99.90;;;;;;6102237;23;20018;-82
2022/03/07 08:08:22;;;;;;;20.75;12.93;;;3.20;99.90;;;;;;6126819;23;20349;-80
2022/03/07 08:10:47;;;;;;;21.00;12.77;;;3.40;99.90;;;;;;6078452;23;20041;-80
2022/03/07 08:13:13;;;;;;;18.95;12.23;;;3.80;99.90;;;;;;6102513;23;20018;-81
2022/03/07 08:15:40;;;;;;;21.20;12.18;;;4.80;99.90;;;;;;6102382;23;20013;-81
2022/03/07 08:18:07;;;;;;;20.75;10.70;;;4.60;99.90;;;;;;6126590;23;20049;-80
2022/03/07 08:20:33;;;;;;;16.48;11.15;;;4.40;99.90;;;;;;6126565;23;20495;-81
2022/03/07 08:22:59;;;;;;;17.23;11.50;;;4.60;99.90;;;;;;6102234;23;20017;-81
2022/03/07 08:25:25;;;;;;;16.95;10.13;;;4.80;99.90;;;;;;6078322;23;20024;-81
2022/03/07 08:27:51;;;;;;;13.48;9.90;;;5.00;99.90;;;;;;6102487;23;20014;-81
2022/03/07 08:30:19;;;;;;;13.93;10.27;;;4.60;99.90;;;;;;6150753;23;20085;-81
2022/03/07 08:32:45;;;;;;;19.38;11.27;;;4.70;99.90;;;;;;6102466;23;20018;-80
2022/03/07 08:35:12;;;;;;;14.65;10.15;;;5.20;99.90;;;;;;6126410;23;20353;-81
2022/03/07 08:37:38;;;;;;;13.95;9.98;;;5.80;99.90;;;;;;6126497;23;20297;-81
2022/03/07 08:40:06;;;;;;;12.27;9.35;;;5.40;99.90;;;;;;6102094;23;20064;-80
2022/03/07 08:42:32;;;;;;;15.68;10.00;;;5.40;99.90;;;;;;6101867;23;20025;-80
2022/03/07 08:44:58;;;;;;;13.80;8.55;;;5.50;99.90;;;;;;6077589;23;20334;-80
2022/03/07 08:47:23;;;;;;;15.68;9.43;;;5.60;99.90;;;;;;6101316;23;20076;-80
2022/03/07 08:49:49;;;;;;;17.80;9.75;;;5.90;99.90;;;;;;6150825;23;20108;-80
2022/03/07 08:52:15;;;;;;;11.23;8.63;;;6.50;99.90;;;;;;6101822;23;20025;-79
2022/03/07 08:54:46;;;;;;;12.18;8.43;;;7.10;99.90;;;;;;6101799;23;20027;-79
2022/03/07 08:57:13;;;;;;;11.63;6.88;;;7.80;99.90;;;;;;6151078;23;20040;-79
2022/03/07 08:59:39;;;;;;;15.75;8.50;;;8.40;99.90;;;;;;6126207;23;20025;-80
2022/03/07 09:02:05;;;;;;;11.90;7.28;;;9.20;99.90;;;;;;6150251;23;20080;-79
2022/03/07 09:04:31;;;;;;;12.40;5.70;;;10.00;99.90;;;;;;6126520;23;20010;-80
2022/03/07 09:06:57;;;;;;;9.90;5.85;;;10.50;99.90;;;;;;6150299;23;20009;-80
2022/03/07 09:09:22;;;;;;;9.35;5.32;;;11.00;99.90;;;;;;6101905;23;20103;-80
2022/03/07 09:11:48;;;;;;;8.82;5.45;;;11.10;99.90;;;;;;6101607;23;20153;-80
2022/03/07 09:14:15;;;;;;;7.10;4.47;;;11.80;99.90;;;;;;6126505;23;20076;-81
2022/03/07 09:16:42;;;;;;;5.75;4.80;;;12.00;99.50;;;;;;6101093;23;20013;-81
2022/03/07 09:19:08;;;;;;;6.93;5.07;;;12.40;98.70;;;;;;6101592;23;20028;-80
2022/03/07 09:21:35;;;;;;;7.63;5.45;;;12.70;97.60;;;;;;6150411;23;20018;-80
2022/03/07 09:24:01;;;;;;;6.88;4.78;;;13.10;97.10;;;;;;6150478;23;20013;-80
2022/03/07 09:26:26;;;;;;;7.53;4.65;;;13.00;96.20;;;;;;6150641;23;20036;-80
2022/03/07 09:28:52;;;;;;;6.85;4.90;;;13.40;95.50;;;;;;6149922;23;20104;-80
2022/03/07 09:31:18;;;;;;;8.57;3.90;;;13.20;94.50;;;;;;6100807;23;20029;-80
2022/03/07 09:33:44;;;;;;;4.95;2.75;;;13.60;93.50;;;;;;6101172;23;20026;-80
2022/03/07 09:36:10;;;;;;;6.30;3.38;;;13.80;93.40;;;;;;6149566;23;20024;-81
2022/03/07 09:38:36;;;;;;;7.72;3.38;;;13.80;92.70;;;;;;6101349;23;20021;-79
2022/03/07 09:41:03;;;;;;;5.80;3.92;;;13.80;91.90;;;;;;6102676;23;20479;-78
2022/03/07 09:43:29;;;;;;;7.28;3.92;;;13.00;91.30;;;;;;6149452;23;20021;-79
2022/03/07 09:45:55;;;;;;;6.07;3.53;;;12.60;92.50;;;;;;6100102;23;20349;-79
2022/03/07 09:48:22;;;;;;;6.30;3.38;;;12.50;92.40;;;;;;6100876;23;20017;-79
2022/03/07 09:50:48;;;;;;;6.38;3.10;;;12.80;92.50;;;;;;6095403;23;20093;-79
2022/03/07 09:53:16;;;;;;;5.90;3.38;;;12.70;92.30;;;;;;6092617;23;20119;-78
2022/03/07 09:55:42;;;;;;;7.15;4.03;;;12.50;91.90;;;;;;6091416;23;20013;-79
2022/03/07 09:58:08;;;;;;;6.65;3.85;;;12.60;91.70;;;;;;6116006;23;20035;-81
2022/03/07 10:00:35;;;;;;;6.65;3.70;;;12.80;92.40;;;;;;6093410;23;20021;-81
2022/03/07 10:03:05;;;;;;;8.98;4.88;;;13.00;91.70;;;;;;6142711;23;20009;-80
2022/03/07 10:05:43;;;;;;;5.03;3.78;;;13.40;90.50;;;;;;6140136;23;20023;-80
2022/03/07 10:08:10;;;;;;;7.22;4.97;;;13.90;90.70;;;;;;6089955;23;20013;-79
2022/03/07 10:10:41;;;;;;;6.30;3.70;;;14.40;90.80;;;;;;6142439;23;20018;-80
2022/03/07 10:13:13;;;;;;;7.93;4.22;;;15.00;89.70;;;;;;6093337;23;20492;-80
2022/03/07 10:15:40;;;;;;;6.13;4.10;;;14.90;89.00;;;;;;6142046;23;20991;-80
2022/03/07 10:18:10;;;;;;;6.55;4.20;;;15.20;88.10;;;;;;6093301;23;20018;-79
2022/03/07 10:20:36;;;;;;;6.03;4.22;;;14.80;86.30;;;;;;6144067;23;20032;-79
2022/03/07 10:23:01;;;;;;;9.80;4.80;;;14.90;85.20;;;;;;6071815;23;20021;-79
2022/03/07 10:25:30;;;;;;;7.28;4.30;;;15.00;86.00;;;;;;6144609;23;20013;-79
2022/03/07 10:27:57;;;;;;;7.15;4.13;;;15.10;84.40;;;;;;6145564;23;20080;-79
2022/03/07 10:30:26;;;;;;;6.88;4.60;;;15.50;83.50;;;;;;6144006;23;20010;-80
2022/03/07 10:33:00;;;;;;;8.07;5.20;;;14.60;82.30;;;;;;6144359;23;20057;-80
2022/03/07 10:35:28;;;;;;;8.80;6.10;;;13.40;84.40;;;;;;6095626;23;20017;-79
2022/03/07 10:38:06;;;;;;;7.85;5.60;;;13.30;86.10;;;;;;6118776;23;20017;-80
2022/03/07 10:40:34;;;;;;;9.15;5.38;;;13.00;84.00;;;;;;6095022;23;20068;-80
2022/03/07 10:43:01;;;;;;;8.18;6.05;;;12.10;85.90;;;;;;6118912;23;20044;-81
2022/03/07 10:45:28;;;;;;;8.30;5.75;;;11.20;87.80;;;;;;6094580;23;20014;-80
2022/03/07 10:47:59;;;;;;;10.77;5.88;;;11.40;90.20;;;;;;6095534;23;20048;-80
2022/03/07 10:50:26;;;;;;;7.63;5.70;;;12.20;90.00;;;;;;6119666;23;20009;-80
2022/03/07 10:53:02;;;;;;;6.70;5.30;;;12.70;87.70;;;;;;6143803;23;20161;-79
2022/03/07 10:55:30;;;;;;;7.20;5.53;;;13.20;87.30;;;;;;6095619;23;20021;-80
2022/03/07 10:58:13;;;;;;;8.25;5.32;;;13.70;85.40;;;;;;6143904;23;20021;-79
2022/03/07 11:00:56;;;;;;;;;;;13.90;83.20;;;;;;6095136;23;20026;-81
2022/03/07 11:03:30;;;;;;;6.65;5.25;;;14.10;82.80;;;;;;6095577;23;20383;-80
2022/03/07 11:06:00;;;;;;;6.55;5.00;;;14.40;83.60;;;;;;6095347;23;20052;-80
2022/03/07 11:08:26;;;;;;;10.32;5.72;;;13.80;82.70;;;;;;6143213;23;20025;-79
2022/03/07 11:10:54;;;;;;;7.68;4.90;;;13.10;83.70;;;;;;6095654;23;20036;-80
2022/03/07 11:13:26;;;;;;;11.55;5.03;;;12.40;82.80;;;;;;6144143;23;20025;-79
2022/03/07 11:15:55;;;;;;;6.72;4.70;;;11.80;85.30;;;;;;6095598;23;20027;-79
2022/03/07 11:18:22;;;;;;;9.30;5.20;;;12.10;86.50;;;;;;6094901;23;20017;-79
2022/03/07 11:20:49;;;;;;;7.85;5.05;;;12.60;85.90;;;;;;6143853;23;20088;-79
2022/03/07 11:23:21;;;;;;;8.73;4.90;;;13.30;85.30;;;;;;6095468;23;20022;-77
2022/03/07 11:25:53;;;;;;;6.47;4.22;;;13.70;84.40;;;;;;6144697;23;20013;-78
2022/03/07 11:28:22;;;;;;;4.93;3.88;;;14.40;83.80;;;;;;6096040;23;20060;-79
2022/03/07 11:30:50;;;;;;;6.88;4.03;;;14.40;82.50;;;;;;6143838;23;20021;-81
2022/03/07 11:33:34;;;;;;;6.53;4.50;;;14.50;81.50;;;;;;6143474;23;20021;-79
2022/03/07 11:36:03;;;;;;;8.07;4.72;;;14.20;80.60;;;;;;6094347;23;20033;-80
2022/03/07 11:38:32;;;;;;;7.15;4.43;;;14.10;81.20;;;;;;6143533;23;20037;-79
2022/03/07 11:41:03;;;;;;;6.15;3.97;;;13.60;82.90;;;;;;6095105;23;20127;-80
2022/03/07 11:43:34;;;;;;;5.68;3.50;;;13.30;82.70;;;;;;6094525;23;20092;-80
2022/03/07 11:46:06;;;;;;;4.47;3.30;;;13.00;80.10;;;;;;6119099;23;20044;-80
2022/03/07 11:48:45;;;;;;;4.10;3.30;;;12.40;80.90;;;;;;6144250;23;20014;-80
2022/03/07 11:51:31;;;;;;;5.50;3.67;;;11.90;80.00;;;;;;6095138;23;20049;-80
2022/03/07 11:53:58;;;;;;;5.03;3.58;;;11.40;80.20;;;;;;6143095;23;20013;-80
2022/03/07 11:56:35;;;;;;;5.40;3.47;;;10.50;82.70;;;;;;6095507;23;20057;-82
2022/03/07 11:59:04;;;;;;;10.10;3.78;;;10.50;82.50;;;;;;6119706;23;20017;-81
2022/03/07 12:01:33;;;;;;;6.43;4.55;;;10.60;84.60;;;;;;6094290;23;20021;-79
2022/03/07 12:04:18;;;;;;;6.60;3.67;;;10.50;84.40;;;;;;6118920;23;20028;-80
2022/03/07 12:06:50;;;;;;;5.43;3.53;;;10.50;83.50;;;;;;6119631;23;20018;-79
2022/03/07 12:09:37;;;;;;;5.47;3.28;;;10.40;83.70;;;;;;6094490;23;20006;-81
2022/03/07 12:12:02;;;;;;;5.68;3.70;;;10.50;81.80;;;;;;6143983;23;20018;-81
2022/03/07 12:14:30;;;;;;;6.40;3.60;;;10.70;83.10;;;;;;6096485;23;20104;-79
2022/03/07 12:16:56;;;;;;;5.07;3.67;;;10.80;82.90;;;;;;6143874;23;20357;-79
2022/03/07 12:19:25;;;;;;;6.63;3.90;;;10.90;83.50;;;;;;6142918;23;20017;-80
2022/03/07 12:21:51;;;;;;;7.07;3.97;;;10.90;83.30;;;;;;6093391;23;20589;-79
2022/03/07 12:24:21;;;;;;;5.68;3.70;;;10.80;83.90;;;;;;6142956;23;20116;-79
2022/03/07 12:26:55;;;;;;;5.03;3.90;;;11.00;82.80;;;;;;6143698;23;20024;-78
2022/03/07 12:29:23;;;;;;;6.45;3.38;;;11.20;83.00;;;;;;6142490;23;20068;-80
2022/03/07 12:31:57;;;;;;;6.28;3.97;;;11.40;82.60;;;;;;6118137;23;20037;-79
2022/03/07 12:34:28;;;;;;;4.80;3.60;;;11.20;78.80;;;;;;6095185;23;20030;-80